sensor_id;sensor_type;location;lat;lon;timestamp;noise_LAeq;noise_LA_min;noise_LA_max;noise_LA01;noise_LA95
37163;Laerm;23057;48.554;14.454;2024-02-15T00:01:32;37.98;34.31;40.45;;
37163;Laerm;23057;48.554;14.454;2024-02-15T00:04:03;38.02;34.31;40.71;;
37163;Laerm;23057;48.554;14.454;2024-02-15T00:06:33;38.00;35.04;40.43;;
37163;Laerm;23057;48.554;14.454;2024-02-15T00:09:05;37.99;33.90;40.33;;
37163;Laerm;23057;48.554;14.454;2024-02-15T00:11:36;37.99;34.69;40.43;;
37163;Laerm;23057;48.554;14.454;2024-02-15T00:14:07;37.95;35.04;40.43;;
37163;Laerm;23057;48.554;14.454;2024-02-15T00:16:38;37.99;34.69;41.06;;
37163;Laerm;23057;48.554;14.454;2024-02-15T00:19:09;37.99;34.69;40.53;;
37163;Laerm;23057;48.554;14.454;2024-02-15T00:21:43;37.96;35.04;40.43;;
37163;Laerm;23057;48.554;14.454;2024-02-15T00:24:14;38.00;34.69;40.33;;
37163;Laerm;23057;48.554;14.454;2024-02-15T00:26:45;37.99;34.69;40.33;;
37163;Laerm;23057;48.554;14.454;2024-02-15T00:29:17;38.01;34.31;40.71;;
37163;Laerm;23057;48.554;14.454;2024-02-15T00:31:48;38.01;32.93;40.43;;
37163;Laerm;23057;48.554;14.454;2024-02-15T00:34:20;38.02;34.69;40.33;;
37163;Laerm;23057;48.554;14.454;2024-02-15T00:36:51;38.03;34.69;40.43;;
37163;Laerm;23057;48.554;14.454;2024-02-15T00:39:22;38.02;34.69;40.43;;
37163;Laerm;23057;48.554;14.454;2024-02-15T00:41:53;38.00;34.31;40.43;;
37163;Laerm;23057;48.554;14.454;2024-02-15T00:44:27;37.98;34.69;40.36;;
37163;Laerm;23057;48.554;14.454;2024-02-15T00:46:58;37.98;35.04;40.33;;
37163;Laerm;23057;48.554;14.454;2024-02-15T00:49:28;37.96;34.69;40.53;;
37163;Laerm;23057;48.554;14.454;2024-02-15T00:51:59;37.95;33.90;40.33;;
37163;Laerm;23057;48.554;14.454;2024-02-15T00:54:30;37.97;34.31;40.27;;
37163;Laerm;23057;48.554;14.454;2024-02-15T00:57:01;37.97;34.69;40.43;;
37163;Laerm;23057;48.554;14.454;2024-02-15T00:59:32;37.96;34.69;40.62;;
37163;Laerm;23057;48.554;14.454;2024-02-15T01:02:06;37.96;34.31;40.33;;
37163;Laerm;23057;48.554;14.454;2024-02-15T01:04:37;37.97;34.69;40.62;;
37163;Laerm;23057;48.554;14.454;2024-02-15T01:07:07;37.98;34.69;40.23;;
37163;Laerm;23057;48.554;14.454;2024-02-15T01:09:38;37.98;33.90;40.43;;
37163;Laerm;23057;48.554;14.454;2024-02-15T01:12:09;37.97;34.31;40.80;;
37163;Laerm;23057;48.554;14.454;2024-02-15T01:14:40;38.00;34.31;40.53;;
37163;Laerm;23057;48.554;14.454;2024-02-15T01:17:12;37.99;34.31;40.53;;
37163;Laerm;23057;48.554;14.454;2024-02-15T01:19:44;37.99;34.31;40.43;;
37163;Laerm;23057;48.554;14.454;2024-02-15T01:22:16;37.97;33.90;40.43;;
37163;Laerm;23057;48.554;14.454;2024-02-15T01:24:47;37.95;34.31;40.43;;
37163;Laerm;23057;48.554;14.454;2024-02-15T01:27:18;37.92;34.31;40.62;;
37163;Laerm;23057;48.554;14.454;2024-02-15T01:29:49;37.91;34.31;40.53;;
37163;Laerm;23057;48.554;14.454;2024-02-15T01:32:19;37.93;33.90;40.23;;
37163;Laerm;23057;48.554;14.454;2024-02-15T01:34:51;37.93;34.69;40.33;;
37163;Laerm;23057;48.554;14.454;2024-02-15T01:37:24;37.92;34.31;40.43;;
37163;Laerm;23057;48.554;14.454;2024-02-15T01:39:55;37.94;34.69;40.53;;
37163;Laerm;23057;48.554;14.454;2024-02-15T01:42:26;37.97;34.69;40.53;;
37163;Laerm;23057;48.554;14.454;2024-02-15T01:44:57;37.94;34.69;40.43;;
37163;Laerm;23057;48.554;14.454;2024-02-15T01:47:28;37.95;34.69;40.53;;
37163;Laerm;23057;48.554;14.454;2024-02-15T01:49:59;37.98;35.04;40.33;;
37163;Laerm;23057;48.554;14.454;2024-02-15T01:52:30;37.95;34.69;40.53;;
37163;Laerm;23057;48.554;14.454;2024-02-15T01:55:05;37.94;35.04;40.80;;
37163;Laerm;23057;48.554;14.454;2024-02-15T01:57:40;37.93;35.04;40.33;;
37163;Laerm;23057;48.554;14.454;2024-02-15T02:00:18;37.93;34.31;40.45;;
37163;Laerm;23057;48.554;14.454;2024-02-15T02:02:53;37.91;32.93;40.23;;
37163;Laerm;23057;48.554;14.454;2024-02-15T02:05:26;37.92;34.31;40.71;;
37163;Laerm;23057;48.554;14.454;2024-02-15T02:07:57;37.91;34.31;40.71;;
37163;Laerm;23057;48.554;14.454;2024-02-15T02:10:30;37.91;33.90;40.53;;
37163;Laerm;23057;48.554;14.454;2024-02-15T02:13:04;37.92;32.93;40.23;;
37163;Laerm;23057;48.554;14.454;2024-02-15T02:15:36;37.92;34.69;40.53;;
37163;Laerm;23057;48.554;14.454;2024-02-15T02:18:07;37.95;34.31;40.53;;
37163;Laerm;23057;48.554;14.454;2024-02-15T02:20:40;37.91;34.69;40.43;;
37163;Laerm;23057;48.554;14.454;2024-02-15T02:23:16;37.91;34.31;40.23;;
37163;Laerm;23057;48.554;14.454;2024-02-15T02:25:49;37.86;32.93;40.33;;
37163;Laerm;23057;48.554;14.454;2024-02-15T02:28:20;37.83;33.90;40.80;;
37163;Laerm;23057;48.554;14.454;2024-02-15T02:30:52;37.82;34.31;40.89;;
37163;Laerm;23057;48.554;14.454;2024-02-15T02:33:23;37.81;34.69;40.53;;
37163;Laerm;23057;48.554;14.454;2024-02-15T02:35:59;37.85;34.31;40.23;;
37163;Laerm;23057;48.554;14.454;2024-02-15T02:38:29;37.85;34.34;40.33;;
37163;Laerm;23057;48.554;14.454;2024-02-15T02:41:00;37.88;33.90;40.43;;
37163;Laerm;23057;48.554;14.454;2024-02-15T02:43:31;37.90;34.31;40.43;;
37163;Laerm;23057;48.554;14.454;2024-02-15T02:46:03;37.92;33.90;40.36;;
37163;Laerm;23057;48.554;14.454;2024-02-15T02:48:40;37.92;33.90;40.53;;
37163;Laerm;23057;48.554;14.454;2024-02-15T02:51:10;37.91;34.31;40.43;;
37163;Laerm;23057;48.554;14.454;2024-02-15T02:53:41;37.94;33.90;40.71;;
37163;Laerm;23057;48.554;14.454;2024-02-15T02:56:12;37.96;33.90;40.33;;
37163;Laerm;23057;48.554;14.454;2024-02-15T02:58:43;37.94;34.31;40.43;;
37163;Laerm;23057;48.554;14.454;2024-02-15T03:01:14;37.95;33.90;40.27;;
37163;Laerm;23057;48.554;14.454;2024-02-15T03:03:45;37.93;33.44;40.33;;
37163;Laerm;23057;48.554;14.454;2024-02-15T03:06:16;37.94;34.31;40.71;;
37163;Laerm;23057;48.554;14.454;2024-02-15T03:08:47;37.96;35.01;40.33;;
37163;Laerm;23057;48.554;14.454;2024-02-15T03:11:18;37.96;33.55;40.33;;
37163;Laerm;23057;48.554;14.454;2024-02-15T03:13:49;37.93;34.69;40.43;;
37163;Laerm;23057;48.554;14.454;2024-02-15T03:16:23;37.91;34.69;40.33;;
37163;Laerm;23057;48.554;14.454;2024-02-15T03:18:55;37.89;33.90;40.33;;
37163;Laerm;23057;48.554;14.454;2024-02-15T03:21:27;37.89;33.44;40.43;;
37163;Laerm;23057;48.554;14.454;2024-02-15T03:23:57;37.89;34.31;40.71;;
37163;Laerm;23057;48.554;14.454;2024-02-15T03:26:32;37.88;34.69;40.33;;
37163;Laerm;23057;48.554;14.454;2024-02-15T03:29:07;37.90;34.69;40.33;;
37163;Laerm;23057;48.554;14.454;2024-02-15T03:31:41;37.93;34.31;40.33;;
37163;Laerm;23057;48.554;14.454;2024-02-15T03:34:12;37.94;34.69;40.43;;
37163;Laerm;23057;48.554;14.454;2024-02-15T03:36:45;37.93;34.31;40.53;;
37163;Laerm;23057;48.554;14.454;2024-02-15T03:39:16;37.94;34.69;40.89;;
37163;Laerm;23057;48.554;14.454;2024-02-15T03:41:48;37.94;34.69;40.45;;
37163;Laerm;23057;48.554;14.454;2024-02-15T03:44:18;37.94;34.69;40.53;;
37163;Laerm;23057;48.554;14.454;2024-02-15T03:46:50;37.93;33.90;40.23;;
37163;Laerm;23057;48.554;14.454;2024-02-15T03:49:21;37.92;34.69;40.43;;
37163;Laerm;23057;48.554;14.454;2024-02-15T03:51:53;37.94;33.44;40.33;;
37163;Laerm;23057;48.554;14.454;2024-02-15T03:54:25;37.90;34.69;40.43;;
37163;Laerm;23057;48.554;14.454;2024-02-15T03:56:56;37.91;34.31;40.23;;
37163;Laerm;23057;48.554;14.454;2024-02-15T03:59:28;37.90;34.31;40.33;;
37163;Laerm;23057;48.554;14.454;2024-02-15T04:01:59;37.90;33.90;40.71;;
37163;Laerm;23057;48.554;14.454;2024-02-15T04:04:29;37.86;32.35;40.33;;
37163;Laerm;23057;48.554;14.454;2024-02-15T04:07:01;37.88;35.01;40.43;;
37163;Laerm;23057;48.554;14.454;2024-02-15T04:09:32;37.89;34.69;40.53;;
37163;Laerm;23057;48.554;14.454;2024-02-15T04:12:04;37.88;34.69;41.46;;
37163;Laerm;23057;48.554;14.454;2024-02-15T04:14:35;37.86;33.90;40.71;;
37163;Laerm;23057;48.554;14.454;2024-02-15T04:17:06;37.89;34.69;40.53;;
37163;Laerm;23057;48.554;14.454;2024-02-15T04:19:37;37.90;34.69;40.53;;
37163;Laerm;23057;48.554;14.454;2024-02-15T04:22:08;37.87;34.31;40.80;;
37163;Laerm;23057;48.554;14.454;2024-02-15T04:24:38;37.85;34.69;40.23;;
37163;Laerm;23057;48.554;14.454;2024-02-15T04:27:10;37.84;34.69;40.43;;
37163;Laerm;23057;48.554;14.454;2024-02-15T04:29:42;37.87;34.69;40.53;;
37163;Laerm;23057;48.554;14.454;2024-02-15T04:32:14;37.85;34.69;40.13;;
37163;Laerm;23057;48.554;14.454;2024-02-15T04:34:46;37.87;34.31;40.18;;
37163;Laerm;23057;48.554;14.454;2024-02-15T04:37:17;37.86;32.93;40.23;;
37163;Laerm;23057;48.554;14.454;2024-02-15T04:39:48;37.85;34.31;40.80;;
37163;Laerm;23057;48.554;14.454;2024-02-15T04:42:19;37.83;34.69;40.33;;
37163;Laerm;23057;48.554;14.454;2024-02-15T04:44:50;37.84;34.31;40.62;;
37163;Laerm;23057;48.554;14.454;2024-02-15T04:47:23;37.86;34.69;40.33;;
37163;Laerm;23057;48.554;14.454;2024-02-15T04:49:54;37.84;33.90;40.33;;
37163;Laerm;23057;48.554;14.454;2024-02-15T04:52:25;37.85;34.31;40.33;;
37163;Laerm;23057;48.554;14.454;2024-02-15T04:54:56;37.85;34.69;40.43;;
37163;Laerm;23057;48.554;14.454;2024-02-15T04:57:29;37.85;34.69;40.13;;
37163;Laerm;23057;48.554;14.454;2024-02-15T05:00:00;37.84;34.31;40.23;;
37163;Laerm;23057;48.554;14.454;2024-02-15T05:02:31;37.83;34.69;40.13;;
37163;Laerm;23057;48.554;14.454;2024-02-15T05:05:02;37.83;34.31;40.13;;
37163;Laerm;23057;48.554;14.454;2024-02-15T05:07:34;37.82;33.97;40.53;;
37163;Laerm;23057;48.554;14.454;2024-02-15T05:10:08;37.81;34.31;40.23;;
37163;Laerm;23057;48.554;14.454;2024-02-15T05:12:40;37.80;33.90;40.43;;
37163;Laerm;23057;48.554;14.454;2024-02-15T05:15:11;37.79;33.90;40.03;;
37163;Laerm;23057;48.554;14.454;2024-02-15T05:17:41;37.80;34.31;40.23;;
37163;Laerm;23057;48.554;14.454;2024-02-15T05:20:12;37.78;33.90;40.23;;
37163;Laerm;23057;48.554;14.454;2024-02-15T05:22:43;37.76;33.90;40.43;;
37163;Laerm;23057;48.554;14.454;2024-02-15T05:25:16;37.76;33.90;40.62;;
37163;Laerm;23057;48.554;14.454;2024-02-15T05:27:54;37.70;33.90;40.03;;
37163;Laerm;23057;48.554;14.454;2024-02-15T05:30:25;37.71;33.90;40.33;;
37163;Laerm;23057;48.554;14.454;2024-02-15T05:32:56;37.70;33.90;40.33;;
37163;Laerm;23057;48.554;14.454;2024-02-15T05:35:27;37.70;33.09;40.53;;
37163;Laerm;23057;48.554;14.454;2024-02-15T05:37:58;37.68;33.44;40.62;;
37163;Laerm;23057;48.554;14.454;2024-02-15T05:40:29;37.72;33.90;40.23;;
37163;Laerm;23057;48.554;14.454;2024-02-15T05:43:01;37.72;33.90;40.53;;
37163;Laerm;23057;48.554;14.454;2024-02-15T05:45:32;37.75;33.90;40.13;;
37163;Laerm;23057;48.554;14.454;2024-02-15T05:48:05;37.75;34.31;40.33;;
37163;Laerm;23057;48.554;14.454;2024-02-15T05:50:39;37.77;33.90;40.23;;
37163;Laerm;23057;48.554;14.454;2024-02-15T05:53:10;37.76;34.31;40.13;;
37163;Laerm;23057;48.554;14.454;2024-02-15T05:55:41;37.77;33.44;40.33;;
37163;Laerm;23057;48.554;14.454;2024-02-15T05:58:15;37.76;33.90;40.43;;
37163;Laerm;23057;48.554;14.454;2024-02-15T06:00:47;37.77;34.31;40.53;;
37163;Laerm;23057;48.554;14.454;2024-02-15T06:03:20;37.80;34.69;40.36;;
37163;Laerm;23057;48.554;14.454;2024-02-15T06:05:57;37.78;34.69;40.71;;
37163;Laerm;23057;48.554;14.454;2024-02-15T06:08:34;37.78;34.31;40.43;;
37163;Laerm;23057;48.554;14.454;2024-02-15T06:11:05;37.79;34.31;40.43;;
37163;Laerm;23057;48.554;14.454;2024-02-15T06:13:36;37.79;34.31;40.33;;
37163;Laerm;23057;48.554;14.454;2024-02-15T06:16:07;37.79;34.69;40.33;;
37163;Laerm;23057;48.554;14.454;2024-02-15T06:18:40;37.81;34.69;40.62;;
37163;Laerm;23057;48.554;14.454;2024-02-15T06:21:11;37.81;33.90;40.53;;
37163;Laerm;23057;48.554;14.454;2024-02-15T06:23:42;37.79;33.90;40.23;;
37163;Laerm;23057;48.554;14.454;2024-02-15T06:26:12;37.81;34.31;40.89;;
37163;Laerm;23057;48.554;14.454;2024-02-15T06:28:43;37.83;34.69;40.13;;
37163;Laerm;23057;48.554;14.454;2024-02-15T06:31:33;37.82;34.31;40.13;;
37163;Laerm;23057;48.554;14.454;2024-02-15T06:34:22;37.83;34.31;40.53;;
37163;Laerm;23057;48.554;14.454;2024-02-15T06:37:36;37.82;33.90;40.03;;
37163;Laerm;23057;48.554;14.454;2024-02-15T06:40:28;37.79;34.31;40.13;;
37163;Laerm;23057;48.554;14.454;2024-02-15T06:43:00;37.76;33.97;40.33;;
37163;Laerm;23057;48.554;14.454;2024-02-15T06:45:30;37.76;34.31;40.23;;
37163;Laerm;23057;48.554;14.454;2024-02-15T06:48:03;37.76;34.69;40.13;;
37163;Laerm;23057;48.554;14.454;2024-02-15T06:50:34;37.74;33.44;40.33;;
37163;Laerm;23057;48.554;14.454;2024-02-15T06:53:07;37.74;33.90;40.33;;
37163;Laerm;23057;48.554;14.454;2024-02-15T06:55:39;37.73;34.69;40.62;;
37163;Laerm;23057;48.554;14.454;2024-02-15T06:58:10;37.75;33.90;40.27;;
37163;Laerm;23057;48.554;14.454;2024-02-15T07:00:43;37.78;33.44;40.62;;
37163;Laerm;23057;48.554;14.454;2024-02-15T07:03:14;37.72;34.69;40.03;;
37163;Laerm;23057;48.554;14.454;2024-02-15T07:05:47;37.75;34.31;40.71;;
37163;Laerm;23057;48.554;14.454;2024-02-15T07:08:18;37.77;33.90;40.13;;
37163;Laerm;23057;48.554;14.454;2024-02-15T07:10:49;37.83;33.90;40.53;;
37163;Laerm;23057;48.554;14.454;2024-02-15T07:13:21;37.85;34.31;40.43;;
37163;Laerm;23057;48.554;14.454;2024-02-15T07:15:53;37.93;34.69;40.43;;
37163;Laerm;23057;48.554;14.454;2024-02-15T07:18:23;37.98;34.69;40.33;;
37163;Laerm;23057;48.554;14.454;2024-02-15T07:20:56;37.96;35.04;40.43;;
37163;Laerm;23057;48.554;14.454;2024-02-15T07:23:30;37.98;34.69;40.89;;
37163;Laerm;23057;48.554;14.454;2024-02-15T07:26:00;37.97;34.69;40.53;;
37163;Laerm;23057;48.554;14.454;2024-02-15T07:28:31;37.98;34.69;40.43;;
37163;Laerm;23057;48.554;14.454;2024-02-15T07:31:02;38.06;34.69;40.43;;
37163;Laerm;23057;48.554;14.454;2024-02-15T07:33:33;38.16;34.69;40.80;;
37163;Laerm;23057;48.554;14.454;2024-02-15T07:36:06;38.35;35.04;40.71;;
37163;Laerm;23057;48.554;14.454;2024-02-15T07:38:37;38.32;34.31;40.80;;
37163;Laerm;23057;48.554;14.454;2024-02-15T07:41:07;38.27;35.04;40.71;;
37163;Laerm;23057;48.554;14.454;2024-02-15T07:43:38;38.30;35.04;40.62;;
37163;Laerm;23057;48.554;14.454;2024-02-15T07:46:14;38.39;35.36;40.88;;
37163;Laerm;23057;48.554;14.454;2024-02-15T07:48:47;38.25;34.69;40.53;;
37163;Laerm;23057;48.554;14.454;2024-02-15T07:51:22;38.28;34.69;40.71;;
37163;Laerm;23057;48.554;14.454;2024-02-15T07:53:53;38.35;35.36;41.14;;
37163;Laerm;23057;48.554;14.454;2024-02-15T07:56:24;38.38;35.04;40.43;;
37163;Laerm;23057;48.554;14.454;2024-02-15T07:58:55;38.33;35.31;40.89;;
37163;Laerm;23057;48.554;14.454;2024-02-15T08:01:26;38.45;34.69;40.89;;
37163;Laerm;23057;48.554;14.454;2024-02-15T08:03:57;38.53;35.36;40.98;;
37163;Laerm;23057;48.554;14.454;2024-02-15T08:06:27;38.60;35.04;41.06;;
37163;Laerm;23057;48.554;14.454;2024-02-15T08:08:59;38.64;35.04;41.06;;
37163;Laerm;23057;48.554;14.454;2024-02-15T08:11:30;38.63;34.69;40.98;;
37163;Laerm;23057;48.554;14.454;2024-02-15T08:14:01;38.41;35.36;40.89;;
37163;Laerm;23057;48.554;14.454;2024-02-15T08:16:32;38.25;35.36;40.98;;
37163;Laerm;23057;48.554;14.454;2024-02-15T08:19:04;38.25;34.31;40.62;;
37163;Laerm;23057;48.554;14.454;2024-02-15T08:21:37;38.30;35.04;40.89;;
37163;Laerm;23057;48.554;14.454;2024-02-15T08:24:08;38.33;35.36;40.71;;
37163;Laerm;23057;48.554;14.454;2024-02-15T08:26:40;38.32;34.69;40.53;;
37163;Laerm;23057;48.554;14.454;2024-02-15T08:29:12;38.35;35.04;40.89;;
37163;Laerm;23057;48.554;14.454;2024-02-15T08:31:45;38.36;35.04;40.62;;
37163;Laerm;23057;48.554;14.454;2024-02-15T08:34:16;38.35;35.04;40.89;;
37163;Laerm;23057;48.554;14.454;2024-02-15T08:36:49;38.33;34.69;40.62;;
37163;Laerm;23057;48.554;14.454;2024-02-15T08:39:19;38.34;35.36;40.89;;
37163;Laerm;23057;48.554;14.454;2024-02-15T08:41:52;38.33;34.31;40.80;;
37163;Laerm;23057;48.554;14.454;2024-02-15T08:44:24;38.34;34.31;40.89;;
37163;Laerm;23057;48.554;14.454;2024-02-15T08:46:55;38.32;35.36;40.71;;
37163;Laerm;23057;48.554;14.454;2024-02-15T08:49:26;38.40;34.69;41.22;;
37163;Laerm;23057;48.554;14.454;2024-02-15T08:51:58;38.44;35.04;40.71;;
37163;Laerm;23057;48.554;14.454;2024-02-15T08:54:29;38.42;35.36;40.71;;
37163;Laerm;23057;48.554;14.454;2024-02-15T08:57:04;38.34;35.04;40.43;;
37163;Laerm;23057;48.554;14.454;2024-02-15T08:59:35;38.36;34.69;40.80;;
37163;Laerm;23057;48.554;14.454;2024-02-15T09:02:06;38.31;34.69;40.71;;
37163;Laerm;23057;48.554;14.454;2024-02-15T09:04:36;38.32;35.36;40.80;;
37163;Laerm;23057;48.554;14.454;2024-02-15T09:07:07;38.33;35.04;40.98;;
37163;Laerm;23057;48.554;14.454;2024-02-15T09:09:39;38.33;34.69;40.62;;
37163;Laerm;23057;48.554;14.454;2024-02-15T09:12:11;38.36;35.04;40.80;;
37163;Laerm;23057;48.554;14.454;2024-02-15T09:14:42;38.38;35.36;40.63;;
37163;Laerm;23057;48.554;14.454;2024-02-15T09:17:14;38.35;34.69;40.89;;
37163;Laerm;23057;48.554;14.454;2024-02-15T09:19:47;38.34;35.04;40.36;;
37163;Laerm;23057;48.554;14.454;2024-02-15T09:22:20;38.34;35.04;40.98;;
37163;Laerm;23057;48.554;14.454;2024-02-15T09:24:51;38.36;35.04;40.62;;
37163;Laerm;23057;48.554;14.454;2024-02-15T09:27:22;38.34;35.04;40.71;;
37163;Laerm;23057;48.554;14.454;2024-02-15T09:29:52;38.42;35.04;40.89;;
37163;Laerm;23057;48.554;14.454;2024-02-15T09:32:23;38.46;35.36;40.98;;
37163;Laerm;23057;48.554;14.454;2024-02-15T09:34:54;38.47;35.36;40.98;;
37163;Laerm;23057;48.554;14.454;2024-02-15T09:37:25;38.52;35.36;40.80;;
37163;Laerm;23057;48.554;14.454;2024-02-15T09:39:58;38.42;34.69;40.80;;
37163;Laerm;23057;48.554;14.454;2024-02-15T09:42:34;38.52;35.66;40.98;;
37163;Laerm;23057;48.554;14.454;2024-02-15T09:45:08;38.46;35.01;40.62;;
37163;Laerm;23057;48.554;14.454;2024-02-15T09:47:44;38.56;35.36;40.71;;
37163;Laerm;23057;48.554;14.454;2024-02-15T09:50:17;38.42;35.04;40.88;;
37163;Laerm;23057;48.554;14.454;2024-02-15T09:52:53;38.38;34.31;40.53;;
37163;Laerm;23057;48.554;14.454;2024-02-15T09:55:28;38.32;34.69;40.62;;
37163;Laerm;23057;48.554;14.454;2024-02-15T09:57:59;38.32;35.66;40.80;;
37163;Laerm;23057;48.554;14.454;2024-02-15T10:00:32;38.35;34.69;40.43;;
37163;Laerm;23057;48.554;14.454;2024-02-15T10:03:06;38.33;35.36;40.71;;
37163;Laerm;23057;48.554;14.454;2024-02-15T10:05:37;38.33;35.04;40.71;;
37163;Laerm;23057;48.554;14.454;2024-02-15T10:08:11;38.34;35.04;40.80;;
37163;Laerm;23057;48.554;14.454;2024-02-15T10:10:41;38.35;35.04;40.80;;
37163;Laerm;23057;48.554;14.454;2024-02-15T10:13:22;38.33;34.69;40.62;;
37163;Laerm;23057;48.554;14.454;2024-02-15T10:15:54;38.34;35.36;41.06;;
37163;Laerm;23057;48.554;14.454;2024-02-15T10:18:25;38.34;34.69;40.62;;
37163;Laerm;23057;48.554;14.454;2024-02-15T10:20:59;38.33;35.36;40.80;;
37163;Laerm;23057;48.554;14.454;2024-02-15T10:23:30;38.33;35.36;44.54;;
37163;Laerm;23057;48.554;14.454;2024-02-15T10:26:20;38.33;35.04;40.71;;
37163;Laerm;23057;48.554;14.454;2024-02-15T10:29:11;38.36;35.04;41.03;;
37163;Laerm;23057;48.554;14.454;2024-02-15T10:31:55;38.38;35.04;48.43;;
37163;Laerm;23057;48.554;14.454;2024-02-15T10:34:27;38.36;35.36;45.42;;
37163;Laerm;23057;48.554;14.454;2024-02-15T10:37:15;38.36;35.04;40.80;;
37163;Laerm;23057;48.554;14.454;2024-02-15T10:40:05;38.37;35.04;44.23;;
37163;Laerm;23057;48.554;14.454;2024-02-15T10:42:41;38.37;34.69;41.14;;
37163;Laerm;23057;48.554;14.454;2024-02-15T10:45:15;38.33;34.31;41.06;;
37163;Laerm;23057;48.554;14.454;2024-02-15T10:47:48;38.34;35.59;40.80;;
37163;Laerm;23057;48.554;14.454;2024-02-15T10:50:19;38.36;35.04;40.80;;
37163;Laerm;23057;48.554;14.454;2024-02-15T10:52:57;38.35;34.69;42.65;;
37163;Laerm;23057;48.554;14.454;2024-02-15T10:55:46;38.35;34.69;40.62;;
37163;Laerm;23057;48.554;14.454;2024-02-15T10:58:20;38.35;35.04;47.81;;
37163;Laerm;23057;48.554;14.454;2024-02-15T11:00:54;38.34;35.36;40.71;;
37163;Laerm;23057;48.554;14.454;2024-02-15T11:03:36;38.33;35.36;40.71;;
37163;Laerm;23057;48.554;14.454;2024-02-15T11:06:13;38.34;35.04;40.89;;
37163;Laerm;23057;48.554;14.454;2024-02-15T11:08:45;38.35;34.69;47.59;;
37163;Laerm;23057;48.554;14.454;2024-02-15T11:11:18;38.32;34.31;40.62;;
37163;Laerm;23057;48.554;14.454;2024-02-15T11:14:29;38.35;34.69;47.30;;
37163;Laerm;23057;48.554;14.454;2024-02-15T11:17:02;38.31;34.31;40.80;;
37163;Laerm;23057;48.554;14.454;2024-02-15T11:22:12;38.32;34.31;40.89;;
37163;Laerm;23057;48.554;14.454;2024-02-15T11:24:52;38.33;35.04;41.14;;
37163;Laerm;23057;48.554;14.454;2024-02-15T11:27:29;38.34;35.04;40.53;;
37163;Laerm;23057;48.554;14.454;2024-02-15T11:30:02;38.33;34.69;40.53;;
37163;Laerm;23057;48.554;14.454;2024-02-15T11:32:49;38.32;34.69;40.62;;
37163;Laerm;23057;48.554;14.454;2024-02-15T11:35:26;38.36;35.36;40.98;;
37163;Laerm;23057;48.554;14.454;2024-02-15T11:38:01;38.34;34.69;41.06;;
37163;Laerm;23057;48.554;14.454;2024-02-15T11:46:18;38.37;35.04;41.30;;
37163;Laerm;23057;48.554;14.454;2024-02-15T11:48:52;38.36;34.31;40.80;;
37163;Laerm;23057;48.554;14.454;2024-02-15T11:51:34;38.35;35.04;41.06;;
37163;Laerm;23057;48.554;14.454;2024-02-15T11:54:13;38.33;34.69;40.63;;
37163;Laerm;23057;48.554;14.454;2024-02-15T11:59:15;38.36;34.31;41.06;;
37163;Laerm;23057;48.554;14.454;2024-02-15T12:02:03;38.34;35.04;40.62;;
37163;Laerm;23057;48.554;14.454;2024-02-15T12:04:53;38.37;35.04;40.89;;
37163;Laerm;23057;48.554;14.454;2024-02-15T12:07:42;38.35;35.04;40.71;;
37163;Laerm;23057;48.554;14.454;2024-02-15T12:10:32;38.36;34.69;40.96;;
37163;Laerm;23057;48.554;14.454;2024-02-15T12:13:21;38.38;34.69;47.96;;
37163;Laerm;23057;48.554;14.454;2024-02-15T12:16:15;38.34;34.69;40.62;;
37163;Laerm;23057;48.554;14.454;2024-02-15T12:19:05;38.36;35.31;46.13;;
37163;Laerm;23057;48.554;14.454;2024-02-15T12:21:37;38.34;34.69;41.06;;
37163;Laerm;23057;48.554;14.454;2024-02-15T12:24:12;38.34;34.31;40.98;;
37163;Laerm;23057;48.554;14.454;2024-02-15T12:26:43;38.32;35.04;42.93;;
37163;Laerm;23057;48.554;14.454;2024-02-15T12:29:18;38.34;35.31;40.80;;
37163;Laerm;23057;48.554;14.454;2024-02-15T12:31:49;38.34;34.69;43.04;;
37163;Laerm;23057;48.554;14.454;2024-02-15T12:34:20;38.31;35.04;40.71;;
37163;Laerm;23057;48.554;14.454;2024-02-15T12:37:06;38.32;34.31;43.99;;
37163;Laerm;23057;48.554;14.454;2024-02-15T12:39:39;38.33;34.69;41.14;;
37163;Laerm;23057;48.554;14.454;2024-02-15T12:42:11;38.33;35.04;40.71;;
37163;Laerm;23057;48.554;14.454;2024-02-15T12:44:49;38.31;35.04;40.98;;
37163;Laerm;23057;48.554;14.454;2024-02-15T12:47:22;38.32;34.69;40.80;;
37163;Laerm;23057;48.554;14.454;2024-02-15T12:49:53;38.32;35.04;40.80;;
37163;Laerm;23057;48.554;14.454;2024-02-15T12:52:37;38.34;35.04;40.71;;
37163;Laerm;23057;48.554;14.454;2024-02-15T12:55:19;38.33;34.31;40.71;;
37163;Laerm;23057;48.554;14.454;2024-02-15T12:57:54;38.33;34.69;40.62;;
37163;Laerm;23057;48.554;14.454;2024-02-15T13:00:27;38.34;35.36;40.80;;
37163;Laerm;23057;48.554;14.454;2024-02-15T13:03:06;38.31;35.04;40.71;;
37163;Laerm;23057;48.554;14.454;2024-02-15T13:05:40;38.31;34.69;40.53;;
37163;Laerm;23057;48.554;14.454;2024-02-15T13:08:11;38.32;35.36;40.71;;
37163;Laerm;23057;48.554;14.454;2024-02-15T13:10:46;38.34;34.69;40.80;;
37163;Laerm;23057;48.554;14.454;2024-02-15T13:13:17;38.33;35.31;40.53;;
37163;Laerm;23057;48.554;14.454;2024-02-15T13:15:48;38.34;34.69;40.71;;
37163;Laerm;23057;48.554;14.454;2024-02-15T13:18:19;38.35;34.69;40.98;;
37163;Laerm;23057;48.554;14.454;2024-02-15T13:20:50;38.32;35.04;40.62;;
37163;Laerm;23057;48.554;14.454;2024-02-15T13:23:23;38.34;34.69;41.82;;
37163;Laerm;23057;48.554;14.454;2024-02-15T13:25:56;38.31;35.04;40.53;;
37163;Laerm;23057;48.554;14.454;2024-02-15T13:28:34;38.31;34.69;40.88;;
37163;Laerm;23057;48.554;14.454;2024-02-15T13:31:05;38.30;35.04;40.62;;
37163;Laerm;23057;48.554;14.454;2024-02-15T13:33:37;38.32;35.04;40.71;;
37163;Laerm;23057;48.554;14.454;2024-02-15T13:36:08;38.34;35.36;40.53;;
37163;Laerm;23057;48.554;14.454;2024-02-15T13:38:41;38.33;35.36;40.98;;
37163;Laerm;23057;48.554;14.454;2024-02-15T13:41:12;38.34;34.69;40.71;;
37163;Laerm;23057;48.554;14.454;2024-02-15T13:43:43;38.34;34.69;41.38;;
37163;Laerm;23057;48.554;14.454;2024-02-15T13:46:14;38.34;35.36;40.98;;
37163;Laerm;23057;48.554;14.454;2024-02-15T13:48:46;38.33;34.69;40.53;;
37163;Laerm;23057;48.554;14.454;2024-02-15T13:51:17;38.33;35.04;40.71;;
37163;Laerm;23057;48.554;14.454;2024-02-15T13:53:49;38.32;35.04;40.71;;
37163;Laerm;23057;48.554;14.454;2024-02-15T13:56:20;38.36;35.04;40.80;;
37163;Laerm;23057;48.554;14.454;2024-02-15T13:58:52;38.33;35.04;40.89;;
37163;Laerm;23057;48.554;14.454;2024-02-15T14:01:23;38.37;35.04;40.71;;
37163;Laerm;23057;48.554;14.454;2024-02-15T14:03:55;38.35;35.36;41.06;;
37163;Laerm;23057;48.554;14.454;2024-02-15T14:06:26;38.33;34.69;40.54;;
37163;Laerm;23057;48.554;14.454;2024-02-15T14:08:57;38.34;35.31;40.71;;
37163;Laerm;23057;48.554;14.454;2024-02-15T14:11:28;38.32;34.69;40.71;;
37163;Laerm;23057;48.554;14.454;2024-02-15T14:13:59;38.35;35.36;40.53;;
37163;Laerm;23057;48.554;14.454;2024-02-15T14:16:30;38.35;35.04;40.53;;